Senyomaru — JI3557 — position and weather

sailwx.info

Track history (hours):
 
Tides and Currents Weather Stations Pressure Air Temp Water Temp Dewpoint Dewpoint Depression Visibility Wind Speed Wind Dir Waves Ship Positions

Senyomaru

Last reported at 2017-Sep-22 01:55 UTC. Time now 2017-Oct-19 22:06 UTC.
Position N 34°34' E 135°23'.
Warning: this ship's position is 27 days out of date.

Length 69 m; draft 4 m.

Type: Tanker. MMSI: 431300188.

Date/timePositionNaut miles runAvg speedWind from/ knotsBaromVisibWave heightAir tempDewpointWater temp
2017-Sep-22 01:55N 34°34' E 135°23'0 0.0
2017-Sep-22 00:25N 34°34' E 135°23'0 0.0
2017-Sep-21 23:07N 34°34' E 135°23'0 0.0
2017-Sep-21 22:49N 34°34' E 135°23'0 0.0
2017-Sep-21 22:25N 34°34' E 135°23'0 0.0
2017-Sep-21 21:55N 34°34' E 135°23'0 0.0
2017-Sep-21 21:25N 34°34' E 135°23'0 0.0
2017-Sep-21 14:49N 34°34' E 135°23'0 0.0
2017-Sep-21 10:49N 34°34' E 135°23'0 0.0
2017-Sep-21 09:19N 34°34' E 135°23'0 0.0
2017-Sep-21 08:55N 34°34' E 135°23'0 0.1
2017-Sep-21 08:19N 34°34' E 135°23'0 0.0
2017-Sep-21 07:55N 34°34' E 135°23'0 0.0
2017-Sep-21 07:25N 34°34' E 135°23'0 0.0
2017-Sep-21 06:49N 34°34' E 135°23'0 0.0
2017-Sep-21 06:25N 34°34' E 135°23'0 0.1
2017-Sep-21 05:55N 34°34' E 135°23'0 0.0
2017-Sep-21 05:19N 34°34' E 135°23'0 0.0
2017-Sep-21 04:55N 34°34' E 135°23'0 0.0
2017-Sep-21 04:25N 34°34' E 135°23'0 0.0
2017-Sep-21 03:55N 34°34' E 135°23'0 0.0
2017-Sep-21 03:25N 34°34' E 135°23'0 0.0
2017-Sep-21 02:49N 34°34' E 135°23'0 0.5
2017-Sep-21 02:04N 34°34' E 135°23'1 9.9
2017-Sep-21 01:57N 34°34' E 135°21'511.8
2017-Sep-21 01:29N 34°30' E 135°16'1712.5
2017-Sep-21 00:08N 34°17' E 135°04'111.0
2017-Sep-21 00:00N 34°16' E 135°03'712.7
2017-Sep-20 23:29N 34°09' E 135°02'612.9
2017-Sep-20 23:00N 34°03' E 135°03'190 7.8
2017-Sep-19 22:36N 35°05' E 138°41'191 9.4
2017-Sep-19 02:20N 34°02' E 135°02'412.7
2017-Sep-19 02:00N 34°06' E 135°02'612.4
2017-Sep-19 01:30N 34°12' E 135°02'1011.7
2017-Sep-19 00:38N 34°21' E 135°08'312.9
2017-Sep-19 00:22N 34°23' E 135°12'2 0.4
2017-Sep-18 18:37N 34°24' E 135°14'0 0.0
2017-Sep-18 18:19N 34°24' E 135°14'0 0.0
2017-Sep-18 17:55N 34°24' E 135°14'0 0.0
2017-Sep-18 11:07N 34°24' E 135°14'0 0.0
2017-Sep-18 10:55N 34°24' E 135°14'0 0.0
2017-Sep-18 09:55N 34°24' E 135°14'0 0.0
2017-Sep-18 09:25N 34°24' E 135°14'0 0.0
2017-Sep-18 08:55N 34°24' E 135°14'0 0.0
2017-Sep-18 00:01N 34°24' E 135°14'0 0.0
2017-Sep-17 23:31N 34°24' E 135°14'0 0.0
2017-Sep-17 23:07N 34°24' E 135°14'0 0.0
2017-Sep-17 21:13N 34°24' E 135°14'0 0.0
2017-Sep-17 18:25N 34°24' E 135°14'0 0.0
2017-Sep-17 17:43N 34°24' E 135°14'0 0.0
2017-Sep-17 12:13N 34°24' E 135°14'0 0.0
2017-Sep-17 11:55N 34°24' E 135°14'0 0.0
2017-Sep-17 04:25N 34°24' E 135°14'0 0.0
2017-Sep-17 03:57N 34°24' E 135°14'0 0.0
2017-Sep-17 03:25N 34°24' E 135°14'0 0.0
2017-Sep-17 01:49N 34°24' E 135°14'0 0.0
2017-Sep-17 01:29N 34°24' E 135°14'0 0.0
2017-Sep-16 23:19N 34°24' E 135°14'0 0.0
2017-Sep-16 21:55N 34°24' E 135°14'0 0.0
2017-Sep-16 21:19N 34°24' E 135°14'0 0.0
2017-Sep-16 20:55N 34°24' E 135°14'0 0.0
2017-Sep-16 16:01N 34°24' E 135°14'0 0.0
2017-Sep-16 15:43N 34°24' E 135°14'0 0.0
2017-Sep-16 15:25N 34°24' E 135°14'0 0.0
2017-Sep-16 14:55N 34°24' E 135°14'0 0.0
2017-Sep-16 12:55N 34°24' E 135°14'0 0.0
2017-Sep-16 12:25N 34°24' E 135°14'1 0.2
2017-Sep-16 06:38N 34°24' E 135°13'210.0
2017-Sep-16 06:25N 34°25' E 135°11'512.2
2017-Sep-16 06:00N 34°29' E 135°15'612.5
2017-Sep-16 05:30N 34°33' E 135°21'3 0.6
2017-Sep-15 23:54N 34°33' E 135°26'3 6.1
2017-Sep-15 23:26N 34°33' E 135°22'512.0
2017-Sep-15 22:59N 34°30' E 135°17'611.8
2017-Sep-15 22:30N 34°26' E 135°11'3 6.7
2017-Sep-15 22:00N 34°23' E 135°12'0 0.1
2017-Sep-15 21:30N 34°23' E 135°12'0 0.0
2017-Sep-15 21:00N 34°23' E 135°12'0 0.0
2017-Sep-15 20:30N 34°23' E 135°12'0 0.0
2017-Sep-15 20:00N 34°23' E 135°12'0 0.0
2017-Sep-15 19:30N 34°23' E 135°12'0 0.0
2017-Sep-15 19:00N 34°23' E 135°12'0 0.0
2017-Sep-15 18:30N 34°23' E 135°12'0 0.0
2017-Sep-15 18:00N 34°23' E 135°12'0 0.0
2017-Sep-15 17:30N 34°23' E 135°12'0 0.0
2017-Sep-15 17:00N 34°23' E 135°12'0 0.0
2017-Sep-15 16:30N 34°23' E 135°12'0 0.0
2017-Sep-15 16:00N 34°23' E 135°12'0 0.0
2017-Sep-15 15:30N 34°23' E 135°12'0 0.0
2017-Sep-15 15:01N 34°23' E 135°12'0 0.0
2017-Sep-15 14:30N 34°23' E 135°12'0 0.0
2017-Sep-15 14:01N 34°23' E 135°12'0 0.0
2017-Sep-15 13:30N 34°23' E 135°12'0 0.0
2017-Sep-15 13:00N 34°23' E 135°12'0 0.1
2017-Sep-15 12:30N 34°23' E 135°12'0 0.0
2017-Sep-15 12:00N 34°23' E 135°12'0 0.0
2017-Sep-15 11:30N 34°23' E 135°12'0 0.0
2017-Sep-15 11:00N 34°23' E 135°12'0 0.0
2017-Sep-15 10:30N 34°23' E 135°12'0 0.0
2017-Sep-15 10:00N 34°23' E 135°12'0 0.0
2017-Sep-15 09:30N 34°23' E 135°12'0 0.0
2017-Sep-15 09:00N 34°23' E 135°12'0 0.0
2017-Sep-15 08:30N 34°23' E 135°12'0 0.0
2017-Sep-15 08:00N 34°23' E 135°12'0 0.0
2017-Sep-15 07:30N 34°23' E 135°12'0 0.0
2017-Sep-15 07:00N 34°23' E 135°12'0 0.0
2017-Sep-15 06:30N 34°23' E 135°12'3 5.7
2017-Sep-15 05:58N 34°25' E 135°10'612.1
2017-Sep-15 05:27N 34°31' E 135°06'511.4
2017-Sep-15 05:00N 34°35' E 135°03'8 0.2
2017-Sep-13 09:55N 34°36' E 134°54'610.3
2017-Sep-13 09:21N 34°37' E 135°01'411.1
2017-Sep-13 09:00N 34°36' E 135°05'611.6
2017-Sep-13 08:31N 34°34' E 135°12'612.0
2017-Sep-13 08:01N 34°34' E 135°19'5 0.6
2017-Sep-12 22:24N 34°33' E 135°26'1 3.1
2017-Sep-12 22:00N 34°33' E 135°24'1 1.6
2017-Sep-12 21:17N 34°34' E 135°23'0 0.0
2017-Sep-12 21:01N 34°34' E 135°23'0 0.0
2017-Sep-12 20:30N 34°34' E 135°23'0 0.0
2017-Sep-12 19:51N 34°34' E 135°23'0 0.1
2017-Sep-12 19:27N 34°34' E 135°23'0 0.1
2017-Sep-12 19:00N 34°34' E 135°23'0 0.1
2017-Sep-12 18:14N 34°34' E 135°23'0 0.1
2017-Sep-12 17:41N 34°34' E 135°23'0 0.0
2017-Sep-12 17:02N 34°34' E 135°23'0 0.0
2017-Sep-12 16:59N 34°34' E 135°23'0 0.0
2017-Sep-12 16:29N 34°34' E 135°23'0 0.0
2017-Sep-12 16:01N 34°34' E 135°23'0 0.0
2017-Sep-12 15:29N 34°34' E 135°23'0 0.0
2017-Sep-12 14:54N 34°34' E 135°23'0 0.0
2017-Sep-12 14:30N 34°34' E 135°23'0 0.0
2017-Sep-12 14:00N 34°34' E 135°23'0 0.0
2017-Sep-12 13:30N 34°34' E 135°23'0 0.0
2017-Sep-12 13:00N 34°34' E 135°23'0 0.0
2017-Sep-12 12:27N 34°34' E 135°23'0 0.0
2017-Sep-12 12:01N 34°34' E 135°23'0 0.0
2017-Sep-12 11:30N 34°34' E 135°23'0 0.1
2017-Sep-12 11:01N 34°34' E 135°23'0 0.0
2017-Sep-12 10:26N 34°34' E 135°23'0 0.0
2017-Sep-12 10:00N 34°34' E 135°23'0 0.1
2017-Sep-12 09:30N 34°34' E 135°23'0 0.1
2017-Sep-12 09:01N 34°34' E 135°23'0 0.1
2017-Sep-12 08:31N 34°34' E 135°23'0 0.0
2017-Sep-12 07:55N 34°34' E 135°23'0 0.0
2017-Sep-12 07:30N 34°34' E 135°23'0 0.0
2017-Sep-12 07:00N 34°34' E 135°23'0 0.0
2017-Sep-12 06:31N 34°34' E 135°23'0 0.0
2017-Sep-12 06:00N 34°34' E 135°23'0 0.0
2017-Sep-12 05:30N 34°34' E 135°23'0 0.0
2017-Sep-12 04:45N 34°34' E 135°23'0 0.0
2017-Sep-12 04:23N 34°34' E 135°23'0 0.0
2017-Sep-12 03:50N 34°34' E 135°23'0 0.0
2017-Sep-12 03:28N 34°34' E 135°23'0 0.0
2017-Sep-12 02:58N 34°34' E 135°23'0 0.1
2017-Sep-12 02:30N 34°34' E 135°23'0 0.1
2017-Sep-12 02:00N 34°34' E 135°23'  
Track history (hours):
 
Tides and Currents Weather Stations Pressure Air Temp Water Temp Dewpoint Dewpoint Depression Visibility Wind Speed Wind Dir Waves Ship Positions

Senyomaru

Last reported at 2017-Sep-22 01:55 UTC. Time now 2017-Oct-19 22:06 UTC.
Position N 34°34' E 135°23'.
Warning: this ship's position is 27 days out of date.

Length 69 m; draft 4 m.

Type: Tanker. MMSI: 431300188.

Date/timePositionNaut miles runAvg speedWind from/ knotsBaromVisibWave heightAir tempDewpointWater temp
2017-Sep-22 01:55N 34°34' E 135°23'0 0.0
2017-Sep-22 00:25N 34°34' E 135°23'0 0.0
2017-Sep-21 23:07N 34°34' E 135°23'0 0.0
2017-Sep-21 22:49N 34°34' E 135°23'0 0.0
2017-Sep-21 22:25N 34°34' E 135°23'0 0.0
2017-Sep-21 21:55N 34°34' E 135°23'0 0.0
2017-Sep-21 21:25N 34°34' E 135°23'0 0.0
2017-Sep-21 14:49N 34°34' E 135°23'0 0.0
2017-Sep-21 10:49N 34°34' E 135°23'0 0.0
2017-Sep-21 09:19N 34°34' E 135°23'0 0.0
2017-Sep-21 08:55N 34°34' E 135°23'0 0.1
2017-Sep-21 08:19N 34°34' E 135°23'0 0.0
2017-Sep-21 07:55N 34°34' E 135°23'0 0.0
2017-Sep-21 07:25N 34°34' E 135°23'0 0.0
2017-Sep-21 06:49N 34°34' E 135°23'0 0.0
2017-Sep-21 06:25N 34°34' E 135°23'0 0.1
2017-Sep-21 05:55N 34°34' E 135°23'0 0.0
2017-Sep-21 05:19N 34°34' E 135°23'0 0.0
2017-Sep-21 04:55N 34°34' E 135°23'0 0.0
2017-Sep-21 04:25N 34°34' E 135°23'0 0.0
2017-Sep-21 03:55N 34°34' E 135°23'0 0.0
2017-Sep-21 03:25N 34°34' E 135°23'0 0.0
2017-Sep-21 02:49N 34°34' E 135°23'0 0.5
2017-Sep-21 02:04N 34°34' E 135°23'1 9.9
2017-Sep-21 01:57N 34°34' E 135°21'511.8
2017-Sep-21 01:29N 34°30' E 135°16'1712.5
2017-Sep-21 00:08N 34°17' E 135°04'111.0
2017-Sep-21 00:00N 34°16' E 135°03'712.7
2017-Sep-20 23:29N 34°09' E 135°02'612.9
2017-Sep-20 23:00N 34°03' E 135°03'190 7.8
2017-Sep-19 22:36N 35°05' E 138°41'191 9.4
2017-Sep-19 02:20N 34°02' E 135°02'412.7
2017-Sep-19 02:00N 34°06' E 135°02'612.4
2017-Sep-19 01:30N 34°12' E 135°02'1011.7
2017-Sep-19 00:38N 34°21' E 135°08'312.9
2017-Sep-19 00:22N 34°23' E 135°12'2 0.4
2017-Sep-18 18:37N 34°24' E 135°14'0 0.0
2017-Sep-18 18:19N 34°24' E 135°14'0 0.0
2017-Sep-18 17:55N 34°24' E 135°14'0 0.0
2017-Sep-18 11:07N 34°24' E 135°14'0 0.0
2017-Sep-18 10:55N 34°24' E 135°14'0 0.0
2017-Sep-18 09:55N 34°24' E 135°14'0 0.0
2017-Sep-18 09:25N 34°24' E 135°14'0 0.0
2017-Sep-18 08:55N 34°24' E 135°14'0 0.0
2017-Sep-18 00:01N 34°24' E 135°14'0 0.0
2017-Sep-17 23:31N 34°24' E 135°14'0 0.0
2017-Sep-17 23:07N 34°24' E 135°14'0 0.0
2017-Sep-17 21:13N 34°24' E 135°14'0 0.0
2017-Sep-17 18:25N 34°24' E 135°14'0 0.0
2017-Sep-17 17:43N 34°24' E 135°14'0 0.0
2017-Sep-17 12:13N 34°24' E 135°14'0 0.0
2017-Sep-17 11:55N 34°24' E 135°14'0 0.0
2017-Sep-17 04:25N 34°24' E 135°14'0 0.0
2017-Sep-17 03:57N 34°24' E 135°14'0 0.0
2017-Sep-17 03:25N 34°24' E 135°14'0 0.0
2017-Sep-17 01:49N 34°24' E 135°14'0 0.0
2017-Sep-17 01:29N 34°24' E 135°14'0 0.0
2017-Sep-16 23:19N 34°24' E 135°14'0 0.0
2017-Sep-16 21:55N 34°24' E 135°14'0 0.0
2017-Sep-16 21:19N 34°24' E 135°14'0 0.0
2017-Sep-16 20:55N 34°24' E 135°14'0 0.0
2017-Sep-16 16:01N 34°24' E 135°14'0 0.0
2017-Sep-16 15:43N 34°24' E 135°14'0 0.0
2017-Sep-16 15:25N 34°24' E 135°14'0 0.0
2017-Sep-16 14:55N 34°24' E 135°14'0 0.0
2017-Sep-16 12:55N 34°24' E 135°14'0 0.0
2017-Sep-16 12:25N 34°24' E 135°14'1 0.2
2017-Sep-16 06:38N 34°24' E 135°13'210.0
2017-Sep-16 06:25N 34°25' E 135°11'512.2
2017-Sep-16 06:00N 34°29' E 135°15'612.5
2017-Sep-16 05:30N 34°33' E 135°21'3 0.6
2017-Sep-15 23:54N 34°33' E 135°26'3 6.1
2017-Sep-15 23:26N 34°33' E 135°22'512.0
2017-Sep-15 22:59N 34°30' E 135°17'611.8
2017-Sep-15 22:30N 34°26' E 135°11'3 6.7
2017-Sep-15 22:00N 34°23' E 135°12'0 0.1
2017-Sep-15 21:30N 34°23' E 135°12'0 0.0
2017-Sep-15 21:00N 34°23' E 135°12'0 0.0
2017-Sep-15 20:30N 34°23' E 135°12'0 0.0
2017-Sep-15 20:00N 34°23' E 135°12'0 0.0
2017-Sep-15 19:30N 34°23' E 135°12'0 0.0
2017-Sep-15 19:00N 34°23' E 135°12'0 0.0
2017-Sep-15 18:30N 34°23' E 135°12'0 0.0
2017-Sep-15 18:00N 34°23' E 135°12'0 0.0
2017-Sep-15 17:30N 34°23' E 135°12'0 0.0
2017-Sep-15 17:00N 34°23' E 135°12'0 0.0
2017-Sep-15 16:30N 34°23' E 135°12'0 0.0
2017-Sep-15 16:00N 34°23' E 135°12'0 0.0
2017-Sep-15 15:30N 34°23' E 135°12'0 0.0
2017-Sep-15 15:01N 34°23' E 135°12'0 0.0
2017-Sep-15 14:30N 34°23' E 135°12'0 0.0
2017-Sep-15 14:01N 34°23' E 135°12'0 0.0
2017-Sep-15 13:30N 34°23' E 135°12'0 0.0
2017-Sep-15 13:00N 34°23' E 135°12'0 0.1
2017-Sep-15 12:30N 34°23' E 135°12'0 0.0
2017-Sep-15 12:00N 34°23' E 135°12'0 0.0
2017-Sep-15 11:30N 34°23' E 135°12'0 0.0
2017-Sep-15 11:00N 34°23' E 135°12'0 0.0
2017-Sep-15 10:30N 34°23' E 135°12'0 0.0
2017-Sep-15 10:00N 34°23' E 135°12'0 0.0
2017-Sep-15 09:30N 34°23' E 135°12'0 0.0
2017-Sep-15 09:00N 34°23' E 135°12'0 0.0
2017-Sep-15 08:30N 34°23' E 135°12'0 0.0
2017-Sep-15 08:00N 34°23' E 135°12'0 0.0
2017-Sep-15 07:30N 34°23' E 135°12'0 0.0
2017-Sep-15 07:00N 34°23' E 135°12'0 0.0
2017-Sep-15 06:30N 34°23' E 135°12'3 5.7
2017-Sep-15 05:58N 34°25' E 135°10'612.1
2017-Sep-15 05:27N 34°31' E 135°06'511.4
2017-Sep-15 05:00N 34°35' E 135°03'8 0.2
2017-Sep-13 09:55N 34°36' E 134°54'610.3
2017-Sep-13 09:21N 34°37' E 135°01'411.1
2017-Sep-13 09:00N 34°36' E 135°05'611.6
2017-Sep-13 08:31N 34°34' E 135°12'612.0
2017-Sep-13 08:01N 34°34' E 135°19'5 0.6
2017-Sep-12 22:24N 34°33' E 135°26'1 3.1
2017-Sep-12 22:00N 34°33' E 135°24'1 1.6
2017-Sep-12 21:17N 34°34' E 135°23'0 0.0
2017-Sep-12 21:01N 34°34' E 135°23'0 0.0
2017-Sep-12 20:30N 34°34' E 135°23'0 0.0
2017-Sep-12 19:51N 34°34' E 135°23'0 0.1
2017-Sep-12 19:27N 34°34' E 135°23'0 0.1
2017-Sep-12 19:00N 34°34' E 135°23'0 0.1
2017-Sep-12 18:14N 34°34' E 135°23'0 0.1
2017-Sep-12 17:41N 34°34' E 135°23'0 0.0
2017-Sep-12 17:02N 34°34' E 135°23'0 0.0
2017-Sep-12 16:59N 34°34' E 135°23'0 0.0
2017-Sep-12 16:29N 34°34' E 135°23'0 0.0
2017-Sep-12 16:01N 34°34' E 135°23'0 0.0
2017-Sep-12 15:29N 34°34' E 135°23'0 0.0
2017-Sep-12 14:54N 34°34' E 135°23'0 0.0
2017-Sep-12 14:30N 34°34' E 135°23'0 0.0
2017-Sep-12 14:00N 34°34' E 135°23'0 0.0
2017-Sep-12 13:30N 34°34' E 135°23'0 0.0
2017-Sep-12 13:00N 34°34' E 135°23'0 0.0
2017-Sep-12 12:27N 34°34' E 135°23'0 0.0
2017-Sep-12 12:01N 34°34' E 135°23'0 0.0
2017-Sep-12 11:30N 34°34' E 135°23'0 0.1
2017-Sep-12 11:01N 34°34' E 135°23'0 0.0
2017-Sep-12 10:26N 34°34' E 135°23'0 0.0
2017-Sep-12 10:00N 34°34' E 135°23'0 0.1
2017-Sep-12 09:30N 34°34' E 135°23'0 0.1
2017-Sep-12 09:01N 34°34' E 135°23'0 0.1
2017-Sep-12 08:31N 34°34' E 135°23'0 0.0
2017-Sep-12 07:55N 34°34' E 135°23'0 0.0
2017-Sep-12 07:30N 34°34' E 135°23'0 0.0
2017-Sep-12 07:00N 34°34' E 135°23'0 0.0
2017-Sep-12 06:31N 34°34' E 135°23'0 0.0
2017-Sep-12 06:00N 34°34' E 135°23'0 0.0
2017-Sep-12 05:30N 34°34' E 135°23'0 0.0
2017-Sep-12 04:45N 34°34' E 135°23'0 0.0
2017-Sep-12 04:23N 34°34' E 135°23'0 0.0
2017-Sep-12 03:50N 34°34' E 135°23'0 0.0
2017-Sep-12 03:28N 34°34' E 135°23'0 0.0
2017-Sep-12 02:58N 34°34' E 135°23'0 0.1
2017-Sep-12 02:30N 34°34' E 135°23'0 0.1
2017-Sep-12 02:00N 34°34' E 135°23'  

Dump ship's entire track history